sensor_id;sensor_type;location;lat;lon;timestamp;P1;durP1;ratioP1;P2;durP2;ratioP2
49758;SDS011;35654;46.080;11.118;2022-07-11T00:02:05;1.55;;;1.40;;
49758;SDS011;35654;46.080;11.118;2022-07-11T00:04:32;3.83;;;1.55;;
49758;SDS011;35654;46.080;11.118;2022-07-11T00:06:58;2.03;;;1.20;;
49758;SDS011;35654;46.080;11.118;2022-07-11T00:09:25;2.58;;;1.38;;
49758;SDS011;35654;46.080;11.118;2022-07-11T00:14:17;2.00;;;1.40;;
49758;SDS011;35654;46.080;11.118;2022-07-11T00:16:43;1.20;;;1.05;;
49758;SDS011;35654;46.080;11.118;2022-07-11T00:19:09;1.20;;;1.10;;
49758;SDS011;35654;46.080;11.118;2022-07-11T00:21:35;2.65;;;1.40;;
49758;SDS011;35654;46.080;11.118;2022-07-11T00:26:29;2.25;;;1.30;;
49758;SDS011;35654;46.080;11.118;2022-07-11T00:28:55;1.90;;;1.40;;
49758;SDS011;35654;46.080;11.118;2022-07-11T00:31:21;1.40;;;1.30;;
49758;SDS011;35654;46.080;11.118;2022-07-11T00:33:46;1.60;;;1.50;;
49758;SDS011;35654;46.080;11.118;2022-07-11T00:36:12;1.73;;;1.40;;
49758;SDS011;35654;46.080;11.118;2022-07-11T00:38:38;4.63;;;1.83;;
49758;SDS011;35654;46.080;11.118;2022-07-11T00:43:30;3.28;;;1.50;;
49758;SDS011;35654;46.080;11.118;2022-07-11T00:45:58;5.05;;;1.50;;
49758;SDS011;35654;46.080;11.118;2022-07-11T00:48:24;3.10;;;1.42;;
49758;SDS011;35654;46.080;11.118;2022-07-11T00:50:49;1.97;;;1.37;;
49758;SDS011;35654;46.080;11.118;2022-07-11T00:53:15;3.75;;;1.40;;
49758;SDS011;35654;46.080;11.118;2022-07-11T00:58:06;4.15;;;1.58;;
49758;SDS011;35654;46.080;11.118;2022-07-11T01:00:32;2.10;;;1.40;;
49758;SDS011;35654;46.080;11.118;2022-07-11T01:05:23;3.40;;;1.45;;
49758;SDS011;35654;46.080;11.118;2022-07-11T01:07:48;2.30;;;1.40;;
49758;SDS011;35654;46.080;11.118;2022-07-11T01:10:14;2.83;;;1.30;;
49758;SDS011;35654;46.080;11.118;2022-07-11T01:12:39;2.97;;;1.50;;
49758;SDS011;35654;46.080;11.118;2022-07-11T01:15:05;1.53;;;1.43;;
49758;SDS011;35654;46.080;11.118;2022-07-11T01:17:32;2.80;;;1.60;;
49758;SDS011;35654;46.080;11.118;2022-07-11T01:19:58;2.03;;;1.50;;
49758;SDS011;35654;46.080;11.118;2022-07-11T01:22:24;3.07;;;1.30;;
49758;SDS011;35654;46.080;11.118;2022-07-11T01:24:52;1.65;;;1.40;;
49758;SDS011;35654;46.080;11.118;2022-07-11T01:27:18;2.42;;;1.65;;
49758;SDS011;35654;46.080;11.118;2022-07-11T01:29:44;1.65;;;1.52;;
49758;SDS011;35654;46.080;11.118;2022-07-11T01:32:10;1.50;;;1.40;;
49758;SDS011;35654;46.080;11.118;2022-07-11T01:34:35;2.47;;;1.60;;
49758;SDS011;35654;46.080;11.118;2022-07-11T01:37:01;2.47;;;1.50;;
49758;SDS011;35654;46.080;11.118;2022-07-11T01:39:27;1.73;;;1.60;;
49758;SDS011;35654;46.080;11.118;2022-07-11T01:41:55;4.03;;;1.50;;
49758;SDS011;35654;46.080;11.118;2022-07-11T01:44:23;4.18;;;1.50;;
49758;SDS011;35654;46.080;11.118;2022-07-11T01:46:49;4.03;;;1.60;;
49758;SDS011;35654;46.080;11.118;2022-07-11T01:49:14;3.58;;;1.60;;
49758;SDS011;35654;46.080;11.118;2022-07-11T01:51:40;3.38;;;1.50;;
49758;SDS011;35654;46.080;11.118;2022-07-11T01:54:06;3.15;;;1.50;;
49758;SDS011;35654;46.080;11.118;2022-07-11T01:56:32;1.95;;;1.50;;
49758;SDS011;35654;46.080;11.118;2022-07-11T01:58:58;1.88;;;1.65;;
49758;SDS011;35654;46.080;11.118;2022-07-11T02:01:24;1.80;;;1.60;;
49758;SDS011;35654;46.080;11.118;2022-07-11T02:03:49;1.50;;;1.40;;
49758;SDS011;35654;46.080;11.118;2022-07-11T02:06:15;2.00;;;1.70;;
49758;SDS011;35654;46.080;11.118;2022-07-11T02:08:40;1.77;;;1.50;;
49758;SDS011;35654;46.080;11.118;2022-07-11T02:11:06;1.97;;;1.40;;
49758;SDS011;35654;46.080;11.118;2022-07-11T02:13:31;2.10;;;1.90;;
49758;SDS011;35654;46.080;11.118;2022-07-11T02:15:56;4.00;;;1.50;;
49758;SDS011;35654;46.080;11.118;2022-07-11T02:18:22;1.63;;;1.40;;
49758;SDS011;35654;46.080;11.118;2022-07-11T02:20:47;1.57;;;1.33;;
49758;SDS011;35654;46.080;11.118;2022-07-11T02:23:16;3.05;;;1.60;;
49758;SDS011;35654;46.080;11.118;2022-07-11T02:25:43;4.45;;;1.60;;
49758;SDS011;35654;46.080;11.118;2022-07-11T02:28:09;2.10;;;1.60;;
49758;SDS011;35654;46.080;11.118;2022-07-11T02:30:35;3.55;;;1.80;;
49758;SDS011;35654;46.080;11.118;2022-07-11T02:33:02;3.13;;;1.80;;
49758;SDS011;35654;46.080;11.118;2022-07-11T02:35:28;1.60;;;1.42;;
49758;SDS011;35654;46.080;11.118;2022-07-11T02:37:53;1.77;;;1.58;;
49758;SDS011;35654;46.080;11.118;2022-07-11T02:40:19;2.53;;;1.40;;
49758;SDS011;35654;46.080;11.118;2022-07-11T02:42:44;6.90;;;1.87;;
49758;SDS011;35654;46.080;11.118;2022-07-11T02:45:10;2.80;;;1.70;;
49758;SDS011;35654;46.080;11.118;2022-07-11T02:47:36;3.50;;;1.60;;
49758;SDS011;35654;46.080;11.118;2022-07-11T02:50:04;2.15;;;1.70;;
49758;SDS011;35654;46.080;11.118;2022-07-11T02:52:34;3.55;;;1.52;;
49758;SDS011;35654;46.080;11.118;2022-07-11T02:54:59;1.83;;;1.42;;
49758;SDS011;35654;46.080;11.118;2022-07-11T02:57:25;4.05;;;1.70;;
49758;SDS011;35654;46.080;11.118;2022-07-11T02:59:50;2.13;;;1.63;;
49758;SDS011;35654;46.080;11.118;2022-07-11T03:02:16;2.87;;;1.90;;
49758;SDS011;35654;46.080;11.118;2022-07-11T03:04:41;6.63;;;1.60;;
49758;SDS011;35654;46.080;11.118;2022-07-11T03:07:06;2.00;;;1.40;;
49758;SDS011;35654;46.080;11.118;2022-07-11T03:09:32;2.17;;;1.70;;
49758;SDS011;35654;46.080;11.118;2022-07-11T03:11:57;3.03;;;1.87;;
49758;SDS011;35654;46.080;11.118;2022-07-11T03:14:23;2.20;;;1.80;;
49758;SDS011;35654;46.080;11.118;2022-07-11T03:16:48;2.70;;;1.80;;
49758;SDS011;35654;46.080;11.118;2022-07-11T03:19:13;2.20;;;1.60;;
49758;SDS011;35654;46.080;11.118;2022-07-11T03:21:39;5.63;;;1.70;;
49758;SDS011;35654;46.080;11.118;2022-07-11T03:24:04;2.90;;;1.87;;
49758;SDS011;35654;46.080;11.118;2022-07-11T03:26:30;2.50;;;1.57;;
49758;SDS011;35654;46.080;11.118;2022-07-11T03:28:55;4.33;;;1.70;;
49758;SDS011;35654;46.080;11.118;2022-07-11T03:31:20;2.67;;;1.63;;
49758;SDS011;35654;46.080;11.118;2022-07-11T03:33:46;4.30;;;1.80;;
49758;SDS011;35654;46.080;11.118;2022-07-11T03:36:12;4.20;;;1.85;;
49758;SDS011;35654;46.080;11.118;2022-07-11T03:38:37;2.33;;;1.70;;
49758;SDS011;35654;46.080;11.118;2022-07-11T03:41:05;2.97;;;1.70;;
49758;SDS011;35654;46.080;11.118;2022-07-11T03:43:31;6.70;;;1.90;;
49758;SDS011;35654;46.080;11.118;2022-07-11T03:45:56;10.65;;;2.30;;
49758;SDS011;35654;46.080;11.118;2022-07-11T03:48:22;2.15;;;1.60;;
49758;SDS011;35654;46.080;11.118;2022-07-11T03:50:47;5.33;;;1.80;;
49758;SDS011;35654;46.080;11.118;2022-07-11T03:53:14;4.97;;;1.70;;
49758;SDS011;35654;46.080;11.118;2022-07-11T03:55:39;2.63;;;1.88;;
49758;SDS011;35654;46.080;11.118;2022-07-11T03:58:05;2.58;;;1.90;;
49758;SDS011;35654;46.080;11.118;2022-07-11T04:00:30;3.57;;;1.90;;
49758;SDS011;35654;46.080;11.118;2022-07-11T04:02:56;6.83;;;1.90;;
49758;SDS011;35654;46.080;11.118;2022-07-11T04:05:22;5.40;;;2.10;;
49758;SDS011;35654;46.080;11.118;2022-07-11T04:07:48;3.20;;;1.73;;
49758;SDS011;35654;46.080;11.118;2022-07-11T04:10:13;2.47;;;1.87;;
49758;SDS011;35654;46.080;11.118;2022-07-11T04:12:38;2.70;;;1.87;;
49758;SDS011;35654;46.080;11.118;2022-07-11T04:15:04;3.53;;;2.43;;
49758;SDS011;35654;46.080;11.118;2022-07-11T04:17:31;4.25;;;2.00;;
49758;SDS011;35654;46.080;11.118;2022-07-11T04:19:57;4.90;;;2.00;;
49758;SDS011;35654;46.080;11.118;2022-07-11T04:22:22;5.03;;;1.90;;
49758;SDS011;35654;46.080;11.118;2022-07-11T04:27:14;4.80;;;2.10;;
49758;SDS011;35654;46.080;11.118;2022-07-11T04:29:39;3.23;;;2.00;;
49758;SDS011;35654;46.080;11.118;2022-07-11T04:32:05;3.87;;;2.07;;
49758;SDS011;35654;46.080;11.118;2022-07-11T04:34:30;3.15;;;2.13;;
49758;SDS011;35654;46.080;11.118;2022-07-11T04:36:56;4.20;;;1.80;;
49758;SDS011;35654;46.080;11.118;2022-07-11T04:39:21;4.27;;;2.00;;
49758;SDS011;35654;46.080;11.118;2022-07-11T04:41:47;8.37;;;3.33;;
49758;SDS011;35654;46.080;11.118;2022-07-11T04:44:12;3.20;;;1.87;;
49758;SDS011;35654;46.080;11.118;2022-07-11T04:46:38;6.30;;;2.07;;
49758;SDS011;35654;46.080;11.118;2022-07-11T04:49:03;3.80;;;2.00;;
49758;SDS011;35654;46.080;11.118;2022-07-11T04:51:29;4.00;;;2.23;;
49758;SDS011;35654;46.080;11.118;2022-07-11T04:53:54;5.83;;;2.30;;
49758;SDS011;35654;46.080;11.118;2022-07-11T04:56:19;5.87;;;2.13;;
49758;SDS011;35654;46.080;11.118;2022-07-11T04:58:45;5.63;;;2.20;;
49758;SDS011;35654;46.080;11.118;2022-07-11T05:01:10;8.20;;;2.47;;
49758;SDS011;35654;46.080;11.118;2022-07-11T05:03:36;4.40;;;2.33;;
49758;SDS011;35654;46.080;11.118;2022-07-11T05:06:01;6.90;;;2.00;;
49758;SDS011;35654;46.080;11.118;2022-07-11T05:08:27;4.93;;;1.98;;
49758;SDS011;35654;46.080;11.118;2022-07-11T05:10:54;4.85;;;2.20;;
49758;SDS011;35654;46.080;11.118;2022-07-11T05:13:20;3.38;;;2.08;;
49758;SDS011;35654;46.080;11.118;2022-07-11T05:15:45;2.10;;;1.90;;
49758;SDS011;35654;46.080;11.118;2022-07-11T05:18:10;4.07;;;2.10;;
49758;SDS011;35654;46.080;11.118;2022-07-11T05:20:36;9.10;;;2.37;;
49758;SDS011;35654;46.080;11.118;2022-07-11T05:23:02;5.13;;;2.30;;
49758;SDS011;35654;46.080;11.118;2022-07-11T05:25:27;3.87;;;2.23;;
49758;SDS011;35654;46.080;11.118;2022-07-11T05:27:53;5.63;;;2.45;;
49758;SDS011;35654;46.080;11.118;2022-07-11T05:30:18;8.13;;;2.27;;
49758;SDS011;35654;46.080;11.118;2022-07-11T05:32:44;3.87;;;2.33;;
49758;SDS011;35654;46.080;11.118;2022-07-11T05:35:09;4.70;;;2.30;;
49758;SDS011;35654;46.080;11.118;2022-07-11T05:37:35;2.38;;;2.05;;
49758;SDS011;35654;46.080;11.118;2022-07-11T05:40:00;6.37;;;2.77;;
49758;SDS011;35654;46.080;11.118;2022-07-11T05:42:26;7.68;;;2.58;;
49758;SDS011;35654;46.080;11.118;2022-07-11T05:44:53;3.72;;;2.35;;
49758;SDS011;35654;46.080;11.118;2022-07-11T05:47:19;8.03;;;2.53;;
49758;SDS011;35654;46.080;11.118;2022-07-11T05:49:44;4.13;;;2.20;;
49758;SDS011;35654;46.080;11.118;2022-07-11T05:52:10;7.07;;;2.27;;
49758;SDS011;35654;46.080;11.118;2022-07-11T05:54:36;6.40;;;3.73;;
49758;SDS011;35654;46.080;11.118;2022-07-11T05:57:02;5.82;;;2.30;;
49758;SDS011;35654;46.080;11.118;2022-07-11T05:59:27;4.32;;;2.35;;
49758;SDS011;35654;46.080;11.118;2022-07-11T06:01:54;5.95;;;2.13;;
49758;SDS011;35654;46.080;11.118;2022-07-11T06:04:19;9.60;;;2.17;;
49758;SDS011;35654;46.080;11.118;2022-07-11T06:06:45;5.28;;;2.33;;
49758;SDS011;35654;46.080;11.118;2022-07-11T06:09:10;9.10;;;2.43;;
49758;SDS011;35654;46.080;11.118;2022-07-11T06:11:36;16.27;;;2.10;;
49758;SDS011;35654;46.080;11.118;2022-07-11T06:14:01;5.47;;;2.40;;
49758;SDS011;35654;46.080;11.118;2022-07-11T06:16:27;8.80;;;3.20;;
49758;SDS011;35654;46.080;11.118;2022-07-11T06:18:53;8.35;;;2.50;;
49758;SDS011;35654;46.080;11.118;2022-07-11T06:21:18;6.00;;;2.30;;
49758;SDS011;35654;46.080;11.118;2022-07-11T06:23:45;7.45;;;2.60;;
49758;SDS011;35654;46.080;11.118;2022-07-11T06:26:11;6.43;;;2.30;;
49758;SDS011;35654;46.080;11.118;2022-07-11T06:28:37;7.33;;;2.13;;
49758;SDS011;35654;46.080;11.118;2022-07-11T06:31:04;6.75;;;2.50;;
49758;SDS011;35654;46.080;11.118;2022-07-11T06:33:29;6.82;;;2.50;;
49758;SDS011;35654;46.080;11.118;2022-07-11T06:35:55;4.90;;;1.97;;
49758;SDS011;35654;46.080;11.118;2022-07-11T06:38:20;12.13;;;2.47;;
49758;SDS011;35654;46.080;11.118;2022-07-11T06:40:46;5.10;;;2.42;;
49758;SDS011;35654;46.080;11.118;2022-07-11T06:43:12;6.15;;;2.30;;
49758;SDS011;35654;46.080;11.118;2022-07-11T06:45:38;5.45;;;2.63;;
49758;SDS011;35654;46.080;11.118;2022-07-11T06:48:03;16.00;;;2.60;;
49758;SDS011;35654;46.080;11.118;2022-07-11T06:52:55;5.18;;;2.38;;
49758;SDS011;35654;46.080;11.118;2022-07-11T06:55:21;5.07;;;2.35;;
49758;SDS011;35654;46.080;11.118;2022-07-11T06:57:46;18.03;;;2.23;;
49758;SDS011;35654;46.080;11.118;2022-07-11T07:00:12;2.72;;;1.85;;
49758;SDS011;35654;46.080;11.118;2022-07-11T07:02:37;2.90;;;1.95;;
49758;SDS011;35654;46.080;11.118;2022-07-11T07:05:04;4.65;;;1.92;;
49758;SDS011;35654;46.080;11.118;2022-07-11T07:07:30;3.70;;;1.90;;
49758;SDS011;35654;46.080;11.118;2022-07-11T07:09:56;13.85;;;2.47;;
49758;SDS011;35654;46.080;11.118;2022-07-11T07:12:22;8.52;;;2.58;;
49758;SDS011;35654;46.080;11.118;2022-07-11T07:14:47;9.27;;;2.30;;
49758;SDS011;35654;46.080;11.118;2022-07-11T07:17:13;3.38;;;2.47;;
49758;SDS011;35654;46.080;11.118;2022-07-11T07:19:39;3.55;;;2.00;;
49758;SDS011;35654;46.080;11.118;2022-07-11T07:22:04;5.50;;;2.15;;
49758;SDS011;35654;46.080;11.118;2022-07-11T07:24:33;5.07;;;2.63;;
49758;SDS011;35654;46.080;11.118;2022-07-11T07:27:01;5.65;;;2.42;;
49758;SDS011;35654;46.080;11.118;2022-07-11T07:29:30;7.45;;;2.22;;
49758;SDS011;35654;46.080;11.118;2022-07-11T07:31:56;4.57;;;2.05;;
49758;SDS011;35654;46.080;11.118;2022-07-11T07:34:21;4.47;;;2.30;;
49758;SDS011;35654;46.080;11.118;2022-07-11T07:36:47;4.30;;;1.80;;
49758;SDS011;35654;46.080;11.118;2022-07-11T07:39:12;4.05;;;2.08;;
49758;SDS011;35654;46.080;11.118;2022-07-11T07:41:38;5.07;;;1.80;;
49758;SDS011;35654;46.080;11.118;2022-07-11T07:44:04;4.32;;;1.90;;
49758;SDS011;35654;46.080;11.118;2022-07-11T07:46:29;5.22;;;2.17;;
49758;SDS011;35654;46.080;11.118;2022-07-11T07:48:55;2.38;;;2.17;;
49758;SDS011;35654;46.080;11.118;2022-07-11T07:51:21;4.38;;;2.00;;
49758;SDS011;35654;46.080;11.118;2022-07-11T07:53:47;3.78;;;1.95;;
49758;SDS011;35654;46.080;11.118;2022-07-11T07:56:13;5.57;;;2.10;;
49758;SDS011;35654;46.080;11.118;2022-07-11T07:58:38;5.63;;;2.15;;
49758;SDS011;35654;46.080;11.118;2022-07-11T08:01:04;6.97;;;1.90;;
49758;SDS011;35654;46.080;11.118;2022-07-11T08:06:17;5.30;;;2.28;;
49758;SDS011;35654;46.080;11.118;2022-07-11T08:08:43;5.82;;;2.40;;
49758;SDS011;35654;46.080;11.118;2022-07-11T08:11:09;5.85;;;2.45;;
49758;SDS011;35654;46.080;11.118;2022-07-11T08:13:35;2.92;;;2.17;;
49758;SDS011;35654;46.080;11.118;2022-07-11T08:16:02;2.30;;;2.10;;
49758;SDS011;35654;46.080;11.118;2022-07-11T08:18:29;3.97;;;1.80;;
